Time;durP1;ratioP1;P1;durP2;ratioP2;P2;SDS_P1;SDS_P2;PMS_P1;PMS_P2;Temp;Humidity;BMP_temperature;BMP_pressure;BME280_temperature;BME280_humidity;BME280_pressure;Samples;Min_cycle;Max_cycle;Signal;HPM_P1;HPM_P2
2024/03/22 00:00:58;;;;;;;36.60;24.30;;;;;;;9.23;87.12;100423.50;4935398;28;20219;-64
2024/03/22 00:03:25;;;;;;;36.50;25.17;;;;;;;9.26;87.24;100422.66;4936668;29;20221;-66
2024/03/22 00:05:53;;;;;;;42.87;25.33;;;;;;;9.25;87.74;100421.78;4933661;29;20268;-64
2024/03/22 00:08:20;;;;;;;44.10;27.83;;;;;;;9.27;87.57;100427.78;4939144;28;20215;-62
2024/03/22 00:10:47;;;;;;;42.20;27.63;;;;;;;9.24;88.01;100421.78;4946008;29;20579;-61
2024/03/22 00:13:13;;;;;;;39.73;25.73;;;;;;;9.24;89.48;100420.06;4938045;29;20209;-59
2024/03/22 00:15:42;;;;;;;43.83;28.90;;;;;;;9.23;89.72;100418.34;4937673;29;20228;-65
2024/03/22 00:18:08;;;;;;;42.70;27.47;;;;;;;9.23;89.72;100415.78;4936190;29;20240;-62
2024/03/22 00:20:36;;;;;;;41.73;26.87;;;;;;;9.21;90.29;100412.38;4938915;28;20748;-65
2024/03/22 00:23:02;;;;;;;41.40;26.60;;;;;;;9.22;90.76;100413.22;4933819;29;20270;-63
2024/03/22 00:25:29;;;;;;;41.57;27.53;;;;;;;9.22;90.75;100408.09;4936863;29;20217;-66
2024/03/22 00:27:55;;;;;;;44.40;29.53;;;;;;;9.23;91.56;100409.78;4937188;29;20205;-63
2024/03/22 00:30:22;;;;;;;44.23;29.00;;;;;;;9.18;90.79;100396.94;4937607;29;20210;-60
2024/03/22 00:32:48;;;;;;;41.30;29.33;;;;;;;9.22;91.05;100405.50;4936575;29;20582;-65
2024/03/22 00:35:15;;;;;;;42.80;27.23;;;;;;;9.20;91.96;100408.06;4937829;29;20237;-65
2024/03/22 00:37:42;;;;;;;43.00;28.80;;;;;;;9.18;92.22;100405.50;4938281;28;20208;-62
2024/03/22 00:40:13;;;;;;;45.30;29.03;;;;;;;9.19;92.57;100403.78;4921017;28;20236;-64
2024/03/22 00:42:38;;;;;;;49.13;31.43;;;;;;;9.22;92.82;100403.78;4936444;28;20221;-62
2024/03/22 00:45:06;;;;;;;47.37;30.23;;;;;;;9.22;93.63;100397.78;4940461;28;20219;-61
2024/03/22 00:47:32;;;;;;;45.70;30.27;;;;;;;9.18;93.60;100409.78;4937124;28;20222;-62
2024/03/22 00:50:01;;;;;;;49.50;32.53;;;;;;;9.15;94.60;100404.66;4937013;29;20260;-61
2024/03/22 00:52:27;;;;;;;46.13;28.53;;;;;;;9.15;94.60;100399.50;4936619;29;20209;-64
2024/03/22 00:54:55;;;;;;;47.67;30.83;;;;;;;9.15;95.37;100397.78;4936627;29;20291;-61
2024/03/22 00:57:22;;;;;;;44.83;29.50;;;;;;;9.13;96.12;100399.53;4942927;29;20213;-61
2024/03/22 00:59:48;;;;;;;47.57;30.10;;;;;;;9.11;95.73;100397.78;4931956;29;20597;-62
2024/03/22 01:02:14;;;;;;;47.50;29.73;;;;;;;9.13;96.65;100396.94;4938966;29;20276;-63
2024/03/22 01:04:42;;;;;;;47.30;30.93;;;;;;;9.16;96.29;100389.22;4937305;29;20217;-63
2024/03/22 01:07:08;;;;;;;41.00;28.73;;;;;;;9.15;95.94;100387.50;4933377;29;20217;-63
2024/03/22 01:09:35;;;;;;;50.13;31.83;;;;;;;9.17;96.53;100396.09;4936759;29;20661;-61
2024/03/22 01:12:02;;;;;;;44.70;30.23;;;;;;;9.19;96.74;100396.94;4936012;29;20216;-63
2024/03/22 01:14:29;;;;;;;44.37;29.57;;;;;;;9.22;96.42;100395.22;4935871;29;20225;-63
2024/03/22 01:16:55;;;;;;;46.13;30.57;;;;;;;9.23;97.29;100395.22;4933940;29;20213;-62
2024/03/22 01:19:22;;;;;;;46.93;32.40;;;;;;;9.25;97.11;100393.50;4928224;29;20665;-62
2024/03/22 01:21:48;;;;;;;46.30;31.23;;;;;;;9.25;96.71;100392.66;4936305;29;20251;-59
2024/03/22 01:24:15;;;;;;;48.53;32.47;;;;;;;9.28;96.56;100395.19;4922987;29;20210;-63
2024/03/22 01:26:42;;;;;;;46.03;31.20;;;;;;;9.24;96.76;100396.91;4940448;29;20310;-63
2024/03/22 01:29:10;;;;;;;50.50;32.63;;;;;;;9.23;97.69;100395.22;4936309;29;20216;-63
2024/03/22 01:31:36;;;;;;;49.43;32.87;;;;;;;9.23;97.47;100391.78;4936492;29;20652;-62
2024/03/22 01:34:03;;;;;;;49.33;31.77;;;;;;;9.25;97.22;100392.66;4937940;29;20217;-60
2024/03/22 01:36:29;;;;;;;51.03;34.87;;;;;;;9.25;97.27;100392.66;4932856;29;20213;-66
2024/03/22 01:38:56;;;;;;;54.27;33.53;;;;;;;9.24;97.57;100390.91;4933647;29;20623;-61
2024/03/22 01:41:22;;;;;;;57.33;34.27;;;;;;;9.25;97.61;100397.81;4941410;28;20839;-64
2024/03/22 01:43:49;;;;;;;56.17;33.83;;;;;;;9.21;97.80;100390.94;4935649;29;20241;-60
2024/03/22 01:46:16;;;;;;;56.77;35.13;;;;;;;9.28;98.12;100397.78;4936578;29;20265;-64
2024/03/22 01:48:43;;;;;;;56.70;34.17;;;;;;;9.28;97.46;100393.50;4940029;28;20220;-67
2024/03/22 01:51:10;;;;;;;55.40;35.77;;;;;;;9.28;98.49;100393.50;4935598;29;20268;-65
2024/03/22 01:53:38;;;;;;;53.93;34.43;;;;;;;9.27;98.24;100390.91;4936093;29;20224;-65
2024/03/22 01:56:06;;;;;;;56.50;33.97;;;;;;;9.26;98.46;100391.78;4932458;29;20210;-64
2024/03/22 01:58:34;;;;;;;55.77;32.93;;;;;;;9.26;98.49;100387.50;4932878;29;20214;-66
2024/03/22 02:01:00;;;;;;;58.37;36.33;;;;;;;9.28;98.67;100390.06;4932399;29;20210;-64
2024/03/22 02:03:28;;;;;;;56.17;35.87;;;;;;;9.30;98.61;100390.94;4934212;29;20225;-63
2024/03/22 02:05:54;;;;;;;59.03;35.70;;;;;;;9.27;98.11;100380.63;4935308;28;20209;-65
2024/03/22 02:08:21;;;;;;;60.40;35.20;;;;;;;9.27;98.39;100386.63;4935798;29;20217;-66
2024/03/22 02:10:47;;;;;;;55.47;35.10;;;;;;;9.26;98.47;100384.94;4934969;29;20224;-65
2024/03/22 02:13:14;;;;;;;55.30;35.00;;;;;;;9.27;99.01;100375.50;4932214;29;20221;-61
2024/03/22 02:15:40;;;;;;;59.33;34.47;;;;;;;9.28;98.83;100382.34;4929499;29;20216;-66
2024/03/22 02:18:07;;;;;;;56.87;35.20;;;;;;;9.26;98.76;100371.22;4932691;29;20249;-64
2024/03/22 02:20:35;;;;;;;60.57;37.43;;;;;;;9.19;98.81;100373.78;4935230;29;20213;-65
2024/03/22 02:23:02;;;;;;;60.30;36.93;;;;;;;9.15;99.57;100377.22;4934646;29;20248;-65
2024/03/22 02:25:29;;;;;;;54.57;34.80;;;;;;;9.11;100.00;100375.50;4936053;28;20217;-66
2024/03/22 02:27:56;;;;;;;61.80;36.80;;;;;;;9.10;100.00;100372.94;4935934;29;20209;-65
2024/03/22 02:30:22;;;;;;;61.90;36.40;;;;;;;9.10;100.00;100384.09;4935357;29;20556;-64
2024/03/22 02:32:49;;;;;;;59.93;35.80;;;;;;;9.13;100.00;100384.09;4933325;28;20209;-61
2024/03/22 02:35:15;;;;;;;58.73;34.50;;;;;;;9.14;100.00;100380.66;4930158;29;20225;-66
2024/03/22 02:37:43;;;;;;;56.10;34.57;;;;;;;9.15;100.00;100379.78;4927695;29;20205;-66
2024/03/22 02:40:10;;;;;;;54.13;32.30;;;;;;;9.14;100.00;100367.81;4935107;29;20213;-66
2024/03/22 02:42:38;;;;;;;57.30;35.00;;;;;;;9.16;100.00;100375.50;4935095;29;20663;-66
2024/03/22 02:45:05;;;;;;;59.37;34.20;;;;;;;9.15;100.00;100376.38;4931975;29;20680;-64
2024/03/22 02:47:32;;;;;;;61.13;35.87;;;;;;;9.13;100.00;100373.81;4935351;29;20212;-65
2024/03/22 02:49:58;;;;;;;56.37;33.43;;;;;;;9.08;100.00;100367.78;4933927;29;21887;-64
2024/03/22 02:52:25;;;;;;;62.30;35.97;;;;;;;9.09;100.00;100366.94;4927106;29;20224;-66
2024/03/22 02:54:51;;;;;;;61.37;35.77;;;;;;;9.10;100.00;100367.81;4939009;29;20213;-65
2024/03/22 02:57:19;;;;;;;57.77;34.17;;;;;;;9.15;100.00;100373.78;4936150;29;20210;-60
2024/03/22 02:59:47;;;;;;;60.53;34.63;;;;;;;9.18;100.00;100372.09;4935342;29;20213;-60
2024/03/22 03:02:14;;;;;;;64.80;36.43;;;;;;;9.19;100.00;100371.22;4933525;28;20237;-64
2024/03/22 03:04:40;;;;;;;64.03;36.73;;;;;;;9.21;100.00;100372.94;4938493;29;20217;-62
2024/03/22 03:07:07;;;;;;;62.53;35.83;;;;;;;9.14;100.00;100362.66;4931534;29;20269;-61
2024/03/22 03:09:33;;;;;;;65.17;35.37;;;;;;;9.16;100.00;100372.94;4933707;29;20218;-61
2024/03/22 03:12:00;;;;;;;65.87;36.07;;;;;;;9.16;100.00;100366.06;4932978;29;20241;-62
2024/03/22 03:14:26;;;;;;;64.70;36.07;;;;;;;9.16;100.00;100371.22;4930673;29;20681;-62
2024/03/22 03:16:55;;;;;;;63.53;35.90;;;;;;;9.12;100.00;100369.50;4942788;28;20267;-61
2024/03/22 03:19:21;;;;;;;60.93;35.07;;;;;;;9.10;100.00;100371.25;4938104;29;20662;-64
2024/03/22 03:21:50;;;;;;;62.60;34.23;;;;;;;9.08;100.00;100372.09;4937480;29;20209;-64
2024/03/22 03:24:16;;;;;;;53.57;31.93;;;;;;;9.06;100.00;100372.09;4944175;29;20268;-61
2024/03/22 03:26:43;;;;;;;54.33;32.00;;;;;;;9.04;100.00;100371.22;4939068;28;20628;-60
2024/03/22 03:29:10;;;;;;;54.13;32.87;;;;;;;9.03;100.00;100369.53;4931135;28;20213;-62
2024/03/22 03:31:36;;;;;;;56.03;34.97;;;;;;;9.00;99.74;100374.66;4930369;28;20209;-61
2024/03/22 03:34:04;;;;;;;59.90;34.50;;;;;;;8.89;99.44;100381.50;4938799;29;20205;-60
2024/03/22 03:36:30;;;;;;;58.30;34.10;;;;;;;8.81;100.00;100385.78;4944834;29;20217;-61
2024/03/22 03:38:57;;;;;;;61.77;34.70;;;;;;;8.71;100.00;100390.91;4937742;29;20221;-61
2024/03/22 03:41:23;;;;;;;59.93;33.77;;;;;;;8.68;100.00;100390.03;4937700;29;20217;-60
2024/03/22 03:43:51;;;;;;;53.47;31.83;;;;;;;8.66;100.00;100390.03;4937968;29;20233;-61
2024/03/22 03:46:17;;;;;;;54.33;31.83;;;;;;;8.66;100.00;100390.03;4938343;29;20209;-62
2024/03/22 03:48:44;;;;;;;60.40;33.60;;;;;;;8.68;100.00;100393.47;4934858;29;20224;-61
2024/03/22 03:51:11;;;;;;;54.00;30.23;;;;;;;8.70;100.00;100388.34;4928094;29;20201;-61
2024/03/22 03:53:38;;;;;;;52.43;29.23;;;;;;;8.68;100.00;100400.31;4934854;29;20664;-60
2024/03/22 03:56:04;;;;;;;44.17;26.50;;;;;;;8.64;100.00;100402.00;4929821;29;20586;-60
2024/03/22 03:58:31;;;;;;;46.47;28.40;;;;;;;8.61;99.96;100402.00;4937252;29;20212;-61
2024/03/22 04:00:57;;;;;;;51.30;29.13;;;;;;;8.59;99.50;100403.72;4937867;29;20567;-60
2024/03/22 04:03:24;;;;;;;47.23;28.73;;;;;;;8.49;97.99;100394.28;4937614;29;20243;-60
2024/03/22 04:05:56;;;;;;;43.50;25.47;;;;;;;8.38;97.97;100401.09;4937492;29;20272;-61
2024/03/22 04:08:25;;;;;;;45.97;27.17;;;;;;;8.28;97.89;100409.59;4930613;29;20213;-64
2024/03/22 04:10:52;;;;;;;45.87;27.30;;;;;;;8.20;97.78;100417.25;4937915;29;20580;-68
2024/03/22 04:13:19;;;;;;;46.87;26.07;;;;;;;8.10;98.08;100416.38;4937802;29;20210;-66
2024/03/22 04:15:45;;;;;;;46.40;26.17;;;;;;;8.07;98.85;100418.94;4937268;29;20209;-66
2024/03/22 04:18:12;;;;;;;52.90;27.80;;;;;;;8.08;99.72;100425.75;4936838;28;20284;-64
2024/03/22 04:20:38;;;;;;;53.13;27.93;;;;;;;8.08;99.14;100420.63;4937339;29;20221;-63
2024/03/22 04:23:05;;;;;;;45.80;25.30;;;;;;;8.09;100.00;100419.78;4939271;28;20280;-63
2024/03/22 04:25:32;;;;;;;44.93;26.30;;;;;;;8.13;99.92;100415.50;4938301;28;20217;-64
2024/03/22 04:27:59;;;;;;;46.37;26.23;;;;;;;8.16;100.00;100416.38;4932839;29;20589;-65
2024/03/22 04:30:25;;;;;;;49.57;26.23;;;;;;;8.21;99.49;100422.41;4936851;29;20220;-64
2024/03/22 04:32:52;;;;;;;43.30;25.80;;;;;;;8.23;98.98;100423.25;4937520;29;20587;-66
2024/03/22 04:35:18;;;;;;;45.53;24.73;;;;;;;8.23;99.06;100420.69;4937441;29;20226;-65
2024/03/22 04:37:45;;;;;;;49.07;26.07;;;;;;;8.32;99.79;100426.72;4936749;29;20299;-63
2024/03/22 04:40:13;;;;;;;48.23;26.67;;;;;;;8.38;98.71;100426.78;4936868;29;20213;-67
2024/03/22 04:42:40;;;;;;;42.33;24.83;;;;;;;8.38;97.87;100419.94;4941822;28;20238;-65
2024/03/22 04:45:08;;;;;;;44.83;26.47;;;;;;;8.34;96.47;100419.88;4931181;29;20213;-64
2024/03/22 04:47:33;;;;;;;39.40;23.00;;;;;;;8.28;96.11;100419.84;4942506;28;20938;-68
2024/03/22 04:50:00;;;;;;;41.40;23.90;;;;;;;8.23;96.81;100418.13;4937094;28;20288;-66
2024/03/22 04:52:26;;;;;;;38.83;23.53;;;;;;;8.22;97.32;100428.41;4939698;29;20209;-65
2024/03/22 04:54:54;;;;;;;40.73;24.33;;;;;;;8.15;96.57;100419.81;4936673;29;20277;-64
2024/03/22 04:57:19;;;;;;;39.20;23.93;;;;;;;8.15;97.00;100426.66;4936721;29;20210;-66
2024/03/22 04:59:48;;;;;;;43.67;24.93;;;;;;;8.13;96.93;100421.50;4936293;29;20288;-67
2024/03/22 05:02:15;;;;;;;42.03;24.47;;;;;;;8.18;96.76;100432.66;4940169;29;20284;-69
2024/03/22 05:04:41;;;;;;;41.23;25.20;;;;;;;8.19;96.20;100425.81;4934921;29;20217;-68
2024/03/22 05:07:08;;;;;;;38.60;23.30;;;;;;;8.19;96.03;100431.81;4937060;29;20252;-63
2024/03/22 05:09:33;;;;;;;39.67;24.90;;;;;;;8.22;96.36;100439.53;4930428;29;20206;-64
2024/03/22 05:12:00;;;;;;;42.37;24.23;;;;;;;8.25;96.29;100438.69;4935805;29;20220;-68
2024/03/22 05:14:26;;;;;;;42.40;24.20;;;;;;;8.29;95.91;100431.84;4937108;28;20223;-64
2024/03/22 05:16:55;;;;;;;39.03;23.07;;;;;;;8.28;94.81;100437.81;4934194;29;20523;-59
2024/03/22 05:19:20;;;;;;;37.87;23.40;;;;;;;8.27;94.84;100441.25;4941672;28;20723;-61
2024/03/22 05:21:47;;;;;;;36.57;23.27;;;;;;;8.20;94.86;100436.06;4935832;29;20330;-60
2024/03/22 05:24:13;;;;;;;36.70;22.77;;;;;;;8.18;94.93;100430.09;4935686;29;20229;-61
2024/03/22 05:26:40;;;;;;;34.53;21.37;;;;;;;8.22;95.89;100428.41;4938439;29;20698;-62
2024/03/22 05:29:11;;;;;;;38.80;23.73;;;;;;;8.24;95.28;100429.25;4929129;29;20225;-58
2024/03/22 05:31:48;;;;;;;41.43;22.83;;;;;;;8.30;95.08;100423.28;4935211;28;20403;-59
2024/03/22 05:34:16;;;;;;;38.50;22.93;;;;;;;8.33;95.07;100428.44;4935880;29;20220;-57
2024/03/22 05:36:43;;;;;;;40.57;23.63;;;;;;;8.35;95.61;100430.16;4936897;29;20213;-60
2024/03/22 05:39:10;;;;;;;38.07;23.00;;;;;;;8.37;94.96;100431.06;4935339;29;20221;-59
2024/03/22 05:41:37;;;;;;;39.40;23.30;;;;;;;8.41;94.42;100437.06;4937704;28;20284;-57
2024/03/22 05:44:03;;;;;;;38.80;22.30;;;;;;;8.43;94.06;100431.09;4943418;28;20240;-59
2024/03/22 05:46:30;;;;;;;34.43;22.10;;;;;;;8.44;93.96;100431.94;4924380;29;20217;-60
2024/03/22 05:48:57;;;;;;;34.87;22.43;;;;;;;8.43;93.56;100436.22;4928159;29;20633;-59
2024/03/22 05:51:29;;;;;;;34.73;21.83;;;;;;;8.42;93.70;100434.50;4935552;29;20228;-59
2024/03/22 05:53:56;;;;;;;35.80;22.20;;;;;;;8.48;94.16;100438.81;4934872;28;20210;-58
2024/03/22 05:56:24;;;;;;;35.40;21.43;;;;;;;8.50;93.38;100431.09;4935417;29;20240;-59
2024/03/22 05:58:50;;;;;;;35.20;21.83;;;;;;;8.52;93.37;100427.69;4934584;29;20256;-59
2024/03/22 06:01:17;;;;;;;38.33;21.73;;;;;;;8.52;93.33;100430.25;4927377;28;21366;-63
2024/03/22 06:03:43;;;;;;;37.50;22.80;;;;;;;8.54;93.24;100435.38;4936563;29;20696;-60
2024/03/22 06:06:10;;;;;;;36.20;21.90;;;;;;;8.54;93.18;100427.66;4930066;29;20214;-59
2024/03/22 06:08:39;;;;;;;46.13;24.37;;;;;;;8.54;93.13;100414.81;4932586;29;20247;-58
2024/03/22 06:11:08;;;;;;;34.93;21.80;;;;;;;8.58;93.40;100425.13;4933050;29;20240;-60
2024/03/22 06:13:34;;;;;;;32.63;20.60;;;;;;;8.60;92.48;100420.84;4931981;29;20205;-58
2024/03/22 06:16:01;;;;;;;32.20;20.70;;;;;;;8.62;92.38;100429.44;4931232;29;20222;-57
2024/03/22 06:18:27;;;;;;;33.57;20.57;;;;;;;8.63;92.28;100432.84;4934138;29;20237;-59
2024/03/22 06:20:54;;;;;;;33.10;22.23;;;;;;;8.65;92.05;100433.69;4935746;29;20259;-58
2024/03/22 06:23:20;;;;;;;35.27;23.03;;;;;;;8.66;92.41;100433.72;4936546;29;20228;-58
2024/03/22 06:25:53;;;;;;;34.97;21.77;;;;;;;8.65;91.33;100434.56;4938363;28;20209;-57
2024/03/22 06:28:19;;;;;;;34.07;21.57;;;;;;;8.56;91.56;100431.97;4937287;29;20321;-59
2024/03/22 06:30:46;;;;;;;33.67;21.93;;;;;;;8.59;91.07;100442.25;4933903;29;20241;-58
2024/03/22 06:33:12;;;;;;;34.97;21.53;;;;;;;8.60;90.91;100433.69;4932681;29;20541;-60
2024/03/22 06:35:39;;;;;;;32.93;20.83;;;;;;;8.60;91.29;100440.53;4928943;28;20213;-61
2024/03/22 06:38:05;;;;;;;36.77;22.10;;;;;;;8.63;91.18;100433.69;4927739;28;20672;-63
2024/03/22 06:40:33;;;;;;;34.20;21.63;;;;;;;8.64;91.56;100425.13;4939530;29;20219;-64
2024/03/22 06:43:00;;;;;;;36.03;22.50;;;;;;;8.70;90.70;100434.59;4939209;29;20231;-62
2024/03/22 06:45:29;;;;;;;34.40;21.80;;;;;;;8.73;91.28;100432.03;4942907;29;20210;-64
2024/03/22 06:47:55;;;;;;;33.97;21.13;;;;;;;8.75;90.09;100432.88;4938524;29;20209;-68
2024/03/22 06:50:24;;;;;;;33.60;20.43;;;;;;;8.78;90.19;100438.03;4939470;28;20213;-62
2024/03/22 06:52:53;;;;;;;34.07;21.80;;;;;;;8.81;90.17;100432.03;4938708;29;20237;-61
2024/03/22 06:55:20;;;;;;;37.20;22.03;;;;;;;8.83;90.58;100433.72;4935831;29;20740;-58
2024/03/22 06:57:47;;;;;;;32.17;20.53;;;;;;;8.87;89.89;100434.59;4937704;29;20214;-62
2024/03/22 07:00:16;;;;;;;33.30;21.27;;;;;;;8.89;90.07;100430.34;4938517;29;20578;-63
2024/03/22 07:02:42;;;;;;;34.83;20.87;;;;;;;8.92;89.99;100433.75;4938980;29;20205;-63
2024/03/22 07:05:10;;;;;;;39.60;20.63;;;;;;;8.97;89.44;100427.78;4935239;29;20293;-57
2024/03/22 07:07:36;;;;;;;32.97;20.73;;;;;;;8.98;88.86;100429.47;4932799;29;20673;-62
2024/03/22 07:10:05;;;;;;;34.10;21.50;;;;;;;8.93;86.94;100426.91;4938169;29;20216;-58
2024/03/22 07:12:31;;;;;;;34.07;21.30;;;;;;;8.92;88.58;100432.91;4931655;29;20675;-61
2024/03/22 07:15:00;;;;;;;30.60;20.73;;;;;;;8.92;88.05;100436.34;4938379;29;20225;-58
2024/03/22 07:17:28;;;;;;;34.03;21.20;;;;;;;8.92;88.34;100435.47;4940006;29;20225;-57
2024/03/22 07:19:55;;;;;;;29.87;20.97;;;;;;;8.89;87.91;100430.34;4938138;29;20209;-57
2024/03/22 07:22:22;;;;;;;35.30;20.67;;;;;;;8.86;88.27;100438.88;4936594;29;20218;-57
2024/03/22 07:24:49;;;;;;;32.07;20.13;;;;;;;8.83;88.42;100435.44;4936009;29;20688;-58
2024/03/22 07:27:15;;;;;;;34.40;19.70;;;;;;;8.81;87.83;100442.31;4935165;29;20212;-58
2024/03/22 07:29:42;;;;;;;30.93;19.63;;;;;;;8.80;87.87;100435.44;4924907;29;20222;-58
2024/03/22 07:32:11;;;;;;;31.03;19.30;;;;;;;8.78;87.68;100429.47;4932513;29;20244;-59
2024/03/22 07:34:39;;;;;;;30.73;19.43;;;;;;;8.80;88.19;100430.28;4938407;29;20205;-57
2024/03/22 07:37:05;;;;;;;32.17;20.30;;;;;;;8.84;87.85;100426.91;4935081;28;20210;-62
2024/03/22 07:39:32;;;;;;;33.87;20.57;;;;;;;8.87;86.52;100426.88;4934456;29;20264;-62
2024/03/22 07:41:58;;;;;;;32.73;19.83;;;;;;;8.91;87.08;100428.59;4937603;29;20217;-62
2024/03/22 07:44:26;;;;;;;31.47;19.77;;;;;;;8.90;86.15;100421.75;4939693;29;20618;-62
2024/03/22 07:46:52;;;;;;;30.73;18.73;;;;;;;8.87;86.52;100421.75;4939450;29;20641;-64
2024/03/22 07:49:19;;;;;;;29.43;18.20;;;;;;;8.81;85.99;100421.75;4933793;28;20205;-62
2024/03/22 07:51:46;;;;;;;30.77;18.43;;;;;;;8.80;86.51;100420.03;4940609;28;20209;-62
2024/03/22 07:54:13;;;;;;;27.43;16.73;;;;;;;8.80;87.10;100420.91;4940272;29;20268;-62
2024/03/22 07:56:39;;;;;;;32.87;18.70;;;;;;;8.82;86.67;100414.03;4933450;29;20224;-61
2024/03/22 07:59:06;;;;;;;27.97;17.73;;;;;;;8.86;86.53;100418.31;4937123;28;20217;-62
2024/03/22 08:01:32;;;;;;;28.10;17.90;;;;;;;8.86;86.01;100417.47;4934228;29;20217;-59
2024/03/22 08:03:59;;;;;;;31.83;18.97;;;;;;;8.91;85.74;100410.63;4936995;29;20233;-63
2024/03/22 08:06:25;;;;;;;27.77;17.57;;;;;;;8.94;86.07;100413.19;4936843;29;20579;-60
2024/03/22 08:08:53;;;;;;;32.53;18.53;;;;;;;8.97;85.27;100415.78;4935937;28;20263;-59
2024/03/22 08:11:19;;;;;;;27.70;17.90;;;;;;;8.86;84.17;100420.91;4935324;29;20271;-60
2024/03/22 08:13:46;;;;;;;31.27;18.30;;;;;;;8.70;85.18;100417.44;4933317;29;20213;-59
2024/03/22 08:16:12;;;;;;;29.53;18.80;;;;;;;8.65;86.10;100414.03;4938259;29;20213;-63
2024/03/22 08:18:39;;;;;;;28.27;18.33;;;;;;;8.65;86.78;100414.03;4930682;29;20763;-63
2024/03/22 08:21:05;;;;;;;27.80;16.97;;;;;;;8.62;86.90;100410.59;4936955;29;20236;-60
2024/03/22 08:23:34;;;;;;;28.80;17.03;;;;;;;8.58;86.60;100408.84;4937098;29;20229;-61
2024/03/22 08:26:05;;;;;;;28.47;18.27;;;;;;;8.63;86.85;100405.44;4936947;29;20213;-63
2024/03/22 08:28:33;;;;;;;30.80;17.43;;;;;;;8.68;86.73;100405.44;4937194;29;20271;-62
2024/03/22 08:31:03;;;;;;;24.47;16.80;;;;;;;8.68;85.68;100408.00;4935303;29;20221;-62
2024/03/22 08:33:30;;;;;;;25.87;16.50;;;;;;;8.70;86.68;100407.19;4936529;29;20210;-61
2024/03/22 08:36:00;;;;;;;24.23;16.37;;;;;;;8.78;86.39;100409.75;4936853;29;20205;-63
2024/03/22 08:38:28;;;;;;;25.67;15.77;;;;;;;8.85;86.54;100413.19;4936413;29;20636;-60
2024/03/22 08:40:54;;;;;;;23.47;15.33;;;;;;;8.88;85.59;100408.91;4936738;29;20573;-62
2024/03/22 08:43:25;;;;;;;24.03;16.20;;;;;;;8.90;85.47;100407.19;4934846;29;20244;-64
2024/03/22 08:45:51;;;;;;;28.93;15.50;;;;;;;8.87;84.89;100403.75;4935991;29;20231;-62
2024/03/22 08:48:18;;;;;;;21.53;14.97;;;;;;;8.92;85.20;100407.22;4931392;29;20726;-61
2024/03/22 08:50:44;;;;;;;23.93;15.63;;;;;;;8.95;85.36;100409.78;4927496;28;20578;-57
2024/03/22 08:53:11;;;;;;;25.23;15.87;;;;;;;9.00;85.23;100400.34;4934119;28;20239;-60
2024/03/22 08:55:37;;;;;;;24.67;16.23;;;;;;;8.99;83.73;100401.22;4938856;28;20599;-59
2024/03/22 08:58:04;;;;;;;24.70;16.77;;;;;;;8.96;84.24;100398.66;4938969;28;20213;-61
2024/03/22 09:00:32;;;;;;;24.13;16.87;;;;;;;8.98;84.11;100407.19;4935844;29;20209;-62
2024/03/22 09:02:59;;;;;;;25.23;16.27;;;;;;;8.90;83.80;100409.75;4938594;28;20576;-61
2024/03/22 09:05:25;;;;;;;23.57;14.93;;;;;;;8.82;82.55;100397.78;4936900;29;20217;-59
2024/03/22 09:07:55;;;;;;;22.97;15.30;;;;;;;8.80;83.53;100400.34;4935733;29;20253;-62
2024/03/22 09:10:21;;;;;;;23.20;15.70;;;;;;;8.86;83.64;100399.47;4934680;29;20209;-59
2024/03/22 09:12:48;;;;;;;24.13;16.33;;;;;;;8.92;84.41;100404.63;4936193;29;20213;-59
2024/03/22 09:15:14;;;;;;;22.60;13.97;;;;;;;9.00;84.54;100397.78;4935674;29;20640;-58
2024/03/22 09:17:42;;;;;;;21.07;14.47;;;;;;;9.05;83.80;100397.78;4935973;28;20616;-60
2024/03/22 09:20:10;;;;;;;19.93;13.80;;;;;;;9.05;83.76;100396.06;4934014;29;20213;-60
2024/03/22 09:22:39;;;;;;;21.50;14.53;;;;;;;9.09;84.11;100396.91;4935887;28;20261;-63
2024/03/22 09:25:05;;;;;;;22.33;15.17;;;;;;;9.15;83.75;100395.22;4935168;29;20597;-59
2024/03/22 09:27:32;;;;;;;27.30;19.10;;;;;;;9.22;84.02;100392.66;4936397;28;20220;-59
2024/03/22 09:29:58;;;;;;;21.27;14.80;;;;;;;9.24;82.58;100384.06;4935463;29;20213;-59
2024/03/22 09:32:26;;;;;;;25.00;15.30;;;;;;;9.18;81.96;100379.78;4935913;29;20555;-58
2024/03/22 09:34:54;;;;;;;27.20;18.53;;;;;;;9.02;82.28;100378.09;4934484;29;20677;-62
2024/03/22 09:37:21;;;;;;;26.90;17.50;;;;;;;8.93;83.37;100381.50;4936070;29;20565;-58
2024/03/22 09:39:47;;;;;;;25.53;17.23;;;;;;;8.88;83.58;100387.50;4936198;28;20628;-63
2024/03/22 09:42:18;;;;;;;24.40;17.87;;;;;;;8.79;84.32;100384.91;4936485;29;20209;-61
2024/03/22 09:44:48;;;;;;;26.87;17.20;;;;;;;8.76;84.98;100372.06;4936885;29;20232;-61
2024/03/22 09:47:16;;;;;;;24.47;17.27;;;;;;;8.78;85.32;100383.22;4934438;29;20209;-59
2024/03/22 09:49:46;;;;;;;22.83;15.73;;;;;;;8.82;85.60;100378.06;4933665;28;20268;-60
2024/03/22 09:52:15;;;;;;;26.73;17.37;;;;;;;8.88;84.53;100367.81;4934921;29;20213;-59
2024/03/22 09:54:41;;;;;;;25.27;16.53;;;;;;;8.95;84.36;100366.94;4933975;29;20652;-59
2024/03/22 09:57:12;;;;;;;21.80;15.33;;;;;;;9.00;84.67;100366.94;4933994;29;20669;-55
2024/03/22 09:59:39;;;;;;;20.00;14.40;;;;;;;9.08;85.36;100360.09;4939716;28;20759;-58
2024/03/22 10:02:10;;;;;;;21.03;14.50;;;;;;;9.10;84.05;100355.81;4936788;29;20664;-57
2024/03/22 10:04:36;;;;;;;25.17;16.07;;;;;;;9.07;83.61;100363.53;4922503;29;20233;-57
2024/03/22 10:07:03;;;;;;;25.57;16.30;;;;;;;9.03;83.66;100361.81;4935159;28;20665;-57
2024/03/22 10:09:33;;;;;;;22.70;15.07;;;;;;;9.03;84.08;100356.66;4934949;29;20559;-55
2024/03/22 10:12:00;;;;;;;21.73;15.20;;;;;;;9.08;84.94;100354.94;4934358;29;20652;-56
2024/03/22 10:14:30;;;;;;;23.80;16.50;;;;;;;9.13;84.96;100348.09;4934659;29;20212;-56
2024/03/22 10:16:58;;;;;;;20.63;15.00;;;;;;;9.16;84.79;100353.22;4919684;29;20213;-56
2024/03/22 10:19:24;;;;;;;23.00;15.70;;;;;;;9.09;84.80;100348.09;4937946;29;20259;-59
2024/03/22 10:22:01;;;;;;;20.10;14.13;;;;;;;9.09;84.80;100340.38;4934801;29;20953;-58
2024/03/22 10:24:27;;;;;;;22.67;13.93;;;;;;;9.13;84.60;100348.09;4934403;29;20228;-56
2024/03/22 10:26:55;;;;;;;23.03;14.90;;;;;;;9.06;84.92;100340.41;4936157;29;20228;-56
2024/03/22 10:29:22;;;;;;;27.67;17.57;;;;;;;9.00;84.79;100348.94;4934250;28;20214;-56
2024/03/22 10:31:49;;;;;;;18.60;12.77;;;;;;;8.96;86.03;100342.09;4933938;29;20371;-58
2024/03/22 10:34:17;;;;;;;19.50;13.57;;;;;;;8.99;86.63;100343.81;4934910;29;20204;-59
2024/03/22 10:36:44;;;;;;;19.80;14.33;;;;;;;8.87;86.59;100339.53;4935473;29;20281;-59
2024/03/22 10:39:15;;;;;;;18.50;13.90;;;;;;;8.74;88.25;100343.81;4937610;29;20213;-56
2024/03/22 10:41:43;;;;;;;20.87;14.63;;;;;;;8.67;89.52;100347.22;4935479;28;20220;-58
2024/03/22 10:44:11;;;;;;;21.60;15.00;;;;;;;8.64;90.85;100332.66;4935098;29;20229;-56
2024/03/22 10:46:39;;;;;;;21.17;16.23;;;;;;;8.60;91.02;100340.38;4939413;28;20881;-58
2024/03/22 10:49:06;;;;;;;23.87;17.27;;;;;;;8.54;91.11;100338.63;4949070;28;20213;-57
2024/03/22 10:51:35;;;;;;;23.40;17.07;;;;;;;8.54;92.69;100333.50;4932507;29;20583;-58
2024/03/22 10:54:03;;;;;;;27.07;17.30;;;;;;;8.55;93.07;100332.66;4933789;29;20206;-59
2024/03/22 10:56:31;;;;;;;24.07;16.80;;;;;;;8.54;92.96;100328.38;4932389;29;20213;-57
2024/03/22 10:58:57;;;;;;;22.73;15.63;;;;;;;8.49;92.47;100342.91;4932829;29;20580;-58
2024/03/22 11:01:33;;;;;;;26.00;17.07;;;;;;;8.46;93.59;100320.66;4939015;29;20209;-63
2024/03/22 11:04:03;;;;;;;26.57;16.43;;;;;;;8.51;93.61;100318.13;4929975;29;20241;-61
2024/03/22 11:06:32;;;;;;;23.10;16.67;;;;;;;8.63;94.88;100315.53;4928509;29;20300;-59
2024/03/22 11:09:00;;;;;;;23.23;16.10;;;;;;;8.74;93.08;100307.00;4934289;29;20214;-58
2024/03/22 11:11:29;;;;;;;24.40;16.60;;;;;;;8.85;92.12;100311.28;4933517;29;20218;-60
2024/03/22 11:13:56;;;;;;;23.33;17.00;;;;;;;8.91;91.61;100306.13;4936157;28;20212;-60
2024/03/22 11:16:23;;;;;;;23.83;15.87;;;;;;;9.02;91.32;100308.69;4934876;29;20213;-63